createdAt,value
2023-04-25T00:01:50.551Z,20.65
2023-04-25T00:04:20.575Z,26.10
2023-04-25T00:06:50.441Z,18.92
2023-04-25T00:09:20.158Z,23.67
2023-04-25T00:11:52.468Z,38.42
2023-04-25T00:14:22.232Z,25.08
2023-04-25T00:16:52.973Z,22.00
2023-04-25T00:19:22.669Z,22.80
2023-04-25T00:21:52.362Z,25.98
2023-04-25T00:24:22.109Z,23.40
2023-04-25T00:26:54.431Z,28.42
2023-04-25T00:29:24.178Z,22.35
2023-04-25T00:31:53.925Z,19.77
2023-04-25T00:34:23.676Z,17.65
2023-04-25T00:36:53.503Z,18.90
2023-04-25T00:39:23.346Z,16.13
2023-04-25T00:41:57.247Z,20.35
2023-04-25T00:44:28.226Z,19.52
2023-04-25T00:46:58.044Z,21.33
2023-04-25T00:49:27.837Z,18.15
2023-04-25T00:51:57.644Z,22.92
2023-04-25T00:54:27.392Z,18.35
2023-04-25T00:56:59.666Z,21.75
2023-04-25T00:59:30.781Z,22.02
2023-04-25T01:02:00.928Z,19.40
2023-04-25T01:04:31.407Z,18.65
2023-04-25T01:07:03.891Z,21.23
2023-04-25T01:09:34.668Z,20.00
2023-04-25T01:12:07.360Z,23.33
2023-04-25T01:14:37.482Z,19.33
2023-04-25T01:17:10.096Z,21.17
2023-04-25T01:19:39.864Z,19.52
2023-04-25T01:22:13.743Z,21.65
2023-04-25T01:24:43.941Z,21.80
2023-04-25T01:27:14.841Z,23.40
2023-04-25T01:29:44.606Z,20.45
2023-04-25T01:32:14.730Z,24.25
2023-04-25T01:34:45.783Z,20.23
2023-04-25T01:37:18.199Z,27.73
2023-04-25T01:39:49.846Z,22.02
2023-04-25T01:42:19.599Z,18.90
2023-04-25T01:44:49.290Z,18.60
2023-04-25T01:47:18.956Z,21.83
2023-04-25T01:49:49.135Z,24.83
2023-04-25T01:52:21.550Z,23.38
2023-04-25T01:54:51.825Z,24.42
2023-04-25T01:57:21.700Z,23.38
2023-04-25T01:59:52.209Z,21.13
2023-04-25T02:02:42.186Z,22.17
2023-04-25T02:05:22.955Z,15.50
2023-04-25T02:07:55.364Z,24.83
2023-04-25T02:10:28.408Z,25.42
2023-04-25T02:13:18.691Z,23.25
2023-04-25T02:16:09.417Z,21.60
2023-04-25T02:18:41.891Z,18.00
2023-04-25T02:21:12.601Z,23.67
2023-04-25T02:23:46.732Z,27.50
2023-04-25T02:26:17.071Z,18.93
2023-04-25T02:28:46.789Z,21.65
2023-04-25T02:31:16.571Z,15.02
2023-04-25T02:33:46.842Z,24.05
2023-04-25T02:36:16.525Z,25.48
2023-04-25T02:38:48.841Z,22.70
2023-04-25T02:41:18.958Z,21.45
2023-04-25T02:43:49.066Z,16.55
2023-04-25T02:46:32.214Z,20.30
2023-04-25T02:49:09.380Z,19.17
2023-04-25T02:51:39.465Z,21.77
2023-04-25T02:54:11.866Z,25.33
2023-04-25T02:56:45.669Z,25.40
2023-04-25T02:59:20.551Z,21.50
2023-04-25T03:01:50.929Z,18.83
2023-04-25T03:04:20.668Z,22.17
2023-04-25T03:06:51.581Z,20.05
2023-04-25T03:09:26.641Z,20.20
2023-04-25T03:11:56.409Z,23.13
2023-04-25T03:14:26.656Z,22.85
2023-04-25T03:16:56.647Z,29.17
2023-04-25T03:19:26.462Z,28.00
2023-04-25T03:21:56.160Z,29.13
2023-04-25T03:24:29.345Z,28.30
2023-04-25T03:26:59.091Z,38.05
2023-04-25T03:29:29.861Z,25.35
2023-04-25T03:32:00.773Z,30.83
2023-04-25T03:34:30.673Z,27.75
2023-04-25T03:37:01.089Z,28.00
2023-04-25T03:39:34.318Z,24.70
2023-04-25T03:42:04.051Z,27.73
2023-04-25T03:44:34.414Z,30.13
2023-04-25T03:47:04.678Z,32.50
2023-04-25T03:49:34.926Z,37.28
2023-04-25T03:52:06.678Z,38.88
2023-04-25T03:54:42.725Z,37.42
2023-04-25T03:57:16.509Z,39.00
2023-04-25T03:59:46.902Z,39.33
2023-04-25T04:02:18.473Z,34.05
2023-04-25T04:04:49.216Z,36.47
2023-04-25T04:07:19.795Z,37.38
2023-04-25T04:09:53.998Z,35.25
2023-04-25T04:12:30.384Z,37.73
2023-04-25T04:15:00.117Z,35.45
2023-04-25T04:17:29.943Z,34.50
2023-04-25T04:20:00.613Z,32.75
2023-04-25T04:22:34.112Z,36.20
2023-04-25T04:25:13.877Z,38.60
2023-04-25T04:28:02.041Z,34.67
2023-04-25T04:30:53.660Z,32.47
2023-04-25T04:33:24.625Z,25.10
2023-04-25T04:36:00.286Z,25.05
2023-04-25T04:38:31.258Z,25.58
2023-04-25T04:41:07.300Z,28.27
2023-04-25T04:43:52.011Z,27.95
2023-04-25T04:46:43.553Z,35.30
2023-04-25T04:49:32.077Z,31.33
2023-04-25T04:52:31.044Z,39.65
2023-04-25T04:55:25.704Z,34.40
2023-04-25T04:58:10.201Z,47.40
2023-04-25T05:00:52.402Z,37.22
2023-04-25T05:04:01.864Z,44.40
2023-04-25T05:06:55.428Z,37.22
2023-04-25T05:09:44.208Z,35.97
2023-04-25T05:12:14.265Z,30.55
2023-04-25T05:14:55.319Z,35.97
2023-04-25T05:17:34.309Z,31.40
2023-04-25T05:20:22.736Z,35.92
2023-04-25T05:23:28.953Z,39.33
2023-04-25T05:26:35.348Z,30.75
2023-04-25T05:29:31.295Z,36.08
2023-04-25T05:32:22.602Z,33.10
2023-04-25T05:34:53.576Z,35.40
2023-04-25T05:37:28.320Z,30.00
2023-04-25T05:40:01.782Z,27.65
2023-04-25T05:42:50.344Z,35.87
2023-04-25T05:45:32.766Z,35.70
2023-04-25T05:48:15.956Z,22.10
2023-04-25T05:50:56.961Z,28.17
2023-04-25T05:53:45.132Z,29.75
2023-04-25T05:56:16.718Z,34.13
2023-04-25T05:58:46.720Z,24.23
2023-04-25T06:01:17.028Z,23.38
2023-04-25T06:03:51.053Z,35.83
2023-04-25T06:06:21.462Z,30.23
2023-04-25T06:08:51.510Z,36.97
2023-04-25T06:11:21.362Z,31.13
2023-04-25T06:13:51.276Z,31.08
2023-04-25T06:16:21.277Z,30.83
2023-04-25T06:18:53.736Z,30.63
2023-04-25T06:21:23.529Z,32.03
2023-04-25T06:23:54.763Z,27.48
2023-04-25T06:26:27.102Z,29.55
2023-04-25T06:28:56.830Z,21.10
2023-04-25T06:31:27.009Z,29.08
2023-04-25T06:34:01.232Z,26.85
2023-04-25T06:36:33.935Z,24.70
2023-04-25T06:39:10.111Z,31.65
2023-04-25T06:41:39.819Z,25.70
2023-04-25T06:44:11.593Z,33.88
2023-04-25T06:46:53.016Z,28.50
2023-04-25T06:49:25.796Z,26.58
2023-04-25T06:51:55.626Z,29.85
2023-04-25T06:54:25.987Z,31.85
2023-04-25T06:57:04.250Z,29.42
2023-04-25T06:59:35.340Z,23.55
2023-04-25T07:02:07.058Z,29.23
2023-04-25T07:04:39.827Z,23.40
2023-04-25T07:07:09.817Z,23.73
2023-04-25T07:09:49.435Z,18.98
2023-04-25T07:12:19.304Z,26.30
2023-04-25T07:14:49.206Z,23.63
2023-04-25T07:17:19.255Z,14.85
2023-04-25T07:19:52.746Z,21.88
2023-04-25T07:22:22.574Z,20.35
2023-04-25T07:24:54.297Z,16.58
2023-04-25T07:27:27.968Z,21.63
2023-04-25T07:30:19.330Z,13.90
2023-04-25T07:32:49.318Z,16.40
2023-04-25T07:35:21.756Z,23.23
2023-04-25T07:37:52.358Z,16.40
2023-04-25T07:40:23.709Z,19.85
2023-04-25T07:42:58.502Z,19.80
2023-04-25T07:45:36.216Z,19.23
2023-04-25T07:48:07.189Z,18.80
2023-04-25T07:50:42.722Z,15.10
2023-04-25T07:53:12.529Z,19.00
2023-04-25T07:55:49.630Z,14.77
2023-04-25T07:58:22.599Z,12.07
2023-04-25T08:00:57.024Z,15.07
2023-04-25T08:03:55.938Z,21.45
2023-04-25T08:06:36.279Z,15.83
2023-04-25T08:09:12.040Z,16.70
2023-04-25T08:11:43.921Z,20.20
2023-04-25T08:14:16.108Z,16.00
2023-04-25T08:16:47.406Z,24.95
2023-04-25T08:19:17.241Z,17.63
2023-04-25T08:21:53.008Z,17.55
2023-04-25T08:24:29.969Z,19.30
2023-04-25T08:27:00.180Z,13.55
2023-04-25T08:29:31.933Z,16.10
2023-04-25T08:32:01.965Z,13.50
2023-04-25T08:34:33.091Z,18.47
2023-04-25T08:37:09.396Z,10.80
2023-04-25T08:39:44.180Z,15.65
2023-04-25T08:42:41.426Z,14.55
2023-04-25T08:45:12.611Z,11.35
2023-04-25T08:47:45.163Z,14.40
2023-04-25T08:50:14.949Z,10.95
2023-04-25T08:52:49.294Z,13.73
2023-04-25T08:55:19.756Z,18.02
2023-04-25T08:57:49.808Z,12.48
2023-04-25T09:00:21.014Z,15.80
2023-04-25T09:02:51.295Z,15.60
2023-04-25T09:05:21.929Z,19.83
2023-04-25T09:07:59.300Z,13.77
2023-04-25T09:10:29.221Z,12.07
2023-04-25T09:13:09.952Z,16.63
2023-04-25T09:15:59.703Z,15.00
2023-04-25T09:18:49.128Z,16.65
2023-04-25T09:21:19.653Z,13.90
2023-04-25T09:23:53.818Z,15.80
2023-04-25T09:26:25.344Z,12.95
2023-04-25T09:29:08.865Z,11.80
2023-04-25T09:31:42.380Z,9.87
2023-04-25T09:34:16.803Z,9.52
2023-04-25T09:36:51.771Z,15.07
2023-04-25T09:39:48.558Z,13.63
2023-04-25T09:42:20.739Z,14.90
2023-04-25T09:44:50.996Z,10.75
2023-04-25T09:47:22.807Z,10.75
2023-04-25T09:49:53.278Z,13.60
2023-04-25T09:52:26.068Z,9.02
2023-04-25T09:58:49.038Z,13.32
2023-04-25T10:01:21.115Z,12.03
2023-04-25T10:04:05.381Z,12.57
2023-04-25T10:07:03.089Z,9.13
2023-04-25T10:09:34.962Z,10.13
2023-04-25T10:12:04.687Z,16.52
2023-04-25T10:14:37.697Z,8.57
2023-04-25T10:17:08.040Z,9.23
2023-04-25T10:19:37.887Z,8.57
2023-04-25T10:22:11.951Z,9.25
2023-04-25T10:24:42.714Z,10.80
2023-04-25T10:27:12.573Z,8.77
2023-04-25T10:29:45.890Z,10.27
2023-04-25T10:32:15.883Z,11.43
2023-04-25T10:34:48.238Z,7.28
2023-04-25T10:37:18.260Z,10.93
2023-04-25T10:39:48.152Z,6.18
2023-04-25T10:42:18.669Z,14.35
2023-04-25T10:45:05.324Z,8.32
2023-04-25T10:47:39.598Z,11.02
2023-04-25T10:50:10.347Z,8.48
2023-04-25T10:52:42.742Z,6.00
2023-04-25T10:55:12.774Z,8.00
2023-04-25T10:57:45.095Z,11.63
2023-04-25T11:00:20.171Z,6.53
2023-04-25T11:02:52.052Z,8.98
2023-04-25T11:05:26.007Z,15.88
2023-04-25T11:10:31.946Z,8.90
2023-04-25T11:13:02.400Z,9.40
2023-04-25T11:15:34.852Z,8.82
2023-04-25T11:18:04.876Z,9.45
2023-04-25T11:20:34.543Z,12.38
2023-04-25T11:25:35.401Z,8.68
2023-04-25T11:28:06.502Z,14.20
2023-04-25T11:30:38.803Z,11.57
2023-04-25T11:33:08.573Z,12.07
2023-04-25T11:35:38.244Z,11.40
2023-04-25T11:38:08.207Z,9.88
2023-04-25T11:44:02.330Z,7.65
2023-04-25T11:46:35.770Z,13.27
2023-04-25T11:49:06.084Z,13.23
2023-04-25T11:51:42.350Z,10.10
2023-04-25T11:54:12.951Z,8.35
2023-04-25T11:56:45.355Z,11.05
2023-04-25T11:59:15.292Z,8.90
2023-04-25T12:01:52.808Z,10.70
2023-04-25T12:04:24.501Z,11.73
2023-04-25T12:06:59.153Z,9.23
2023-04-25T12:09:33.624Z,12.65
2023-04-25T12:12:07.046Z,10.77
2023-04-25T12:14:39.763Z,10.40
2023-04-25T12:17:12.868Z,17.80
2023-04-25T12:19:45.404Z,7.10
2023-04-25T12:22:25.850Z,7.53
2023-04-25T12:24:57.823Z,8.00
2023-04-25T12:27:29.822Z,9.13
2023-04-25T12:30:00.410Z,12.32
2023-04-25T12:32:32.739Z,9.13
2023-04-25T12:35:02.583Z,9.02
2023-04-25T12:37:32.627Z,11.80
2023-04-25T12:40:02.331Z,8.40
2023-04-25T12:42:32.055Z,6.90
2023-04-25T12:45:01.697Z,6.20
2023-04-25T12:47:36.461Z,8.23
2023-04-25T12:50:06.284Z,10.45
2023-04-25T12:52:36.000Z,9.50
2023-04-25T12:55:06.905Z,7.63
2023-04-25T12:57:36.564Z,7.00
2023-04-25T13:00:10.145Z,7.60
2023-04-25T13:02:43.038Z,10.75
2023-04-25T13:05:13.154Z,7.10
2023-04-25T13:07:42.882Z,6.73
2023-04-25T13:10:12.622Z,8.93
2023-04-25T13:12:42.295Z,5.30
2023-04-25T13:15:13.695Z,7.32
2023-04-25T13:17:46.805Z,6.68
2023-04-25T13:20:16.925Z,5.45
2023-04-25T13:22:46.912Z,7.63
2023-04-25T13:25:17.581Z,7.57
2023-04-25T13:27:47.625Z,6.45
2023-04-25T13:30:17.568Z,5.85
2023-04-25T13:32:49.898Z,8.20
2023-04-25T13:35:21.455Z,10.00
2023-04-25T13:37:51.134Z,6.93
2023-04-25T13:40:22.318Z,7.30
2023-04-25T13:42:53.894Z,21.70
2023-04-25T13:45:24.126Z,8.18
2023-04-25T13:47:56.562Z,7.53
2023-04-25T13:50:26.916Z,6.03
2023-04-25T13:52:56.688Z,6.80
2023-04-25T13:55:26.585Z,8.00
2023-04-25T13:57:56.410Z,6.50
2023-04-25T14:00:26.337Z,8.05
2023-04-25T14:02:58.711Z,9.10
2023-04-25T14:05:28.504Z,6.47
2023-04-25T14:07:59.616Z,8.20
2023-04-25T14:10:30.163Z,6.68
2023-04-25T14:12:59.931Z,5.05
2023-04-25T14:15:29.596Z,5.13
2023-04-25T14:18:02.132Z,10.25
2023-04-25T14:20:32.371Z,7.75
2023-04-25T14:23:02.142Z,6.63
2023-04-25T14:25:31.967Z,8.00
2023-04-25T14:28:02.094Z,8.52
2023-04-25T14:30:31.849Z,7.50
2023-04-25T14:33:04.193Z,7.88
2023-04-25T14:35:34.027Z,6.82
2023-04-25T14:38:03.688Z,5.23
2023-04-25T14:40:33.454Z,6.97
2023-04-25T14:43:03.181Z,6.20
2023-04-25T14:45:32.887Z,9.48
2023-04-25T14:48:05.757Z,6.47
2023-04-25T14:50:35.787Z,3.03
2023-04-25T14:53:05.564Z,5.75
2023-04-25T14:55:36.129Z,5.40
2023-04-25T14:58:06.004Z,6.32
2023-04-25T15:00:35.767Z,7.23
2023-04-25T15:03:08.802Z,5.30
2023-04-25T15:05:38.645Z,7.00
2023-04-25T15:08:08.813Z,9.10
2023-04-25T15:10:38.509Z,6.78
2023-04-25T15:13:08.666Z,6.07
2023-04-25T15:15:38.325Z,6.00
2023-04-25T15:18:11.257Z,7.80
2023-04-25T15:20:41.355Z,5.00
2023-04-25T15:23:11.448Z,4.10
2023-04-25T15:25:41.208Z,6.90
2023-04-25T15:28:10.918Z,6.70
2023-04-25T15:30:40.935Z,6.30
2023-04-25T15:33:13.241Z,7.40
2023-04-25T15:35:43.323Z,6.65
2023-04-25T15:38:13.963Z,7.47
2023-04-25T15:40:44.170Z,6.35
2023-04-25T15:43:16.356Z,7.53
2023-04-25T15:45:46.755Z,7.50
2023-04-25T15:48:19.036Z,7.82
2023-04-25T15:50:48.841Z,5.70
2023-04-25T15:53:18.521Z,6.30
2023-04-25T15:55:48.523Z,9.30
2023-04-25T15:58:18.246Z,6.70
2023-04-25T16:00:49.097Z,5.63
2023-04-25T16:03:22.293Z,5.22
2023-04-25T16:05:52.951Z,5.82
2023-04-25T16:08:22.648Z,7.72
2023-04-25T16:10:52.883Z,6.28
2023-04-25T16:13:22.858Z,4.47
2023-04-25T16:15:52.614Z,6.80
2023-04-25T16:18:25.098Z,5.43
2023-04-25T16:20:54.937Z,6.00
2023-04-25T16:23:26.826Z,5.45
2023-04-25T16:25:56.882Z,6.18
2023-04-25T16:28:26.575Z,4.40
2023-04-25T16:30:56.305Z,5.82
2023-04-25T16:33:28.721Z,7.87
2023-04-25T16:35:58.867Z,7.00
2023-04-25T16:38:28.630Z,7.35
2023-04-25T16:40:58.391Z,7.85
2023-04-25T16:43:28.134Z,8.95
2023-04-25T16:45:57.809Z,5.78
2023-04-25T16:48:30.051Z,6.45
2023-04-25T16:50:59.744Z,9.25
2023-04-25T16:53:29.764Z,8.18
2023-04-25T16:55:59.502Z,6.40
2023-04-25T16:58:29.393Z,5.73
2023-04-25T17:00:59.109Z,7.95
2023-04-25T17:03:34.741Z,7.38
2023-04-25T17:06:05.469Z,6.00
2023-04-25T17:08:35.171Z,7.30
2023-04-25T17:11:04.930Z,6.00
2023-04-25T17:13:35.060Z,14.80
2023-04-25T17:16:04.904Z,9.05
2023-04-25T17:18:37.932Z,5.80
2023-04-25T17:21:08.987Z,8.90
2023-04-25T17:23:44.878Z,8.10
2023-04-25T17:26:15.147Z,4.82
2023-04-25T17:28:49.446Z,10.55
2023-04-25T17:31:19.709Z,7.03
2023-04-25T17:33:52.370Z,7.72
2023-04-25T17:36:22.656Z,7.47
2023-04-25T17:38:52.536Z,6.25
2023-04-25T17:41:22.361Z,7.53
2023-04-25T17:43:52.174Z,7.97
2023-04-25T17:46:21.926Z,5.63
2023-04-25T17:48:54.629Z,6.90
2023-04-25T17:51:24.646Z,5.63
2023-04-25T17:53:54.361Z,6.43
2023-04-25T17:56:26.974Z,6.70
2023-04-25T17:58:57.411Z,10.80
2023-04-25T18:01:27.179Z,5.40
2023-04-25T18:03:59.928Z,6.55
2023-04-25T18:06:32.847Z,11.05
2023-04-25T18:09:02.724Z,8.82
2023-04-25T18:11:32.852Z,8.02
2023-04-25T18:14:02.529Z,8.05
2023-04-25T18:16:32.391Z,5.65
2023-04-25T18:19:05.807Z,7.47
2023-04-25T18:21:36.410Z,6.30
2023-04-25T18:24:06.584Z,8.98
2023-04-25T18:26:36.356Z,7.03
2023-04-25T18:29:07.590Z,8.40
2023-04-25T18:31:37.581Z,9.50
2023-04-25T18:34:10.292Z,13.67
2023-04-25T18:36:40.529Z,12.77
2023-04-25T18:39:21.972Z,9.00
2023-04-25T18:41:59.260Z,7.63
2023-04-25T18:44:32.363Z,10.55
2023-04-25T18:47:02.091Z,5.53
2023-04-25T18:49:34.403Z,7.68
2023-04-25T18:52:04.136Z,6.43
2023-04-25T18:54:34.453Z,10.00
2023-04-25T18:57:04.064Z,8.23
2023-04-25T18:59:33.770Z,7.70
2023-04-25T19:02:05.445Z,7.65
2023-04-25T19:04:38.279Z,9.38
2023-04-25T19:07:08.146Z,5.67
2023-04-25T19:09:37.811Z,9.13
2023-04-25T19:12:07.923Z,10.90
2023-04-25T19:14:37.805Z,11.13
2023-04-25T19:17:07.607Z,10.05
2023-04-25T19:19:40.357Z,8.50
2023-04-25T19:22:10.897Z,8.73
2023-04-25T19:24:40.701Z,9.13
2023-04-25T19:27:10.377Z,11.52
2023-04-25T19:29:44.449Z,10.23
2023-04-25T19:32:14.254Z,8.57
2023-04-25T19:34:46.574Z,8.18
2023-04-25T19:37:17.116Z,9.13
2023-04-25T19:39:48.052Z,10.98
2023-04-25T19:42:19.298Z,8.93
2023-04-25T19:44:49.025Z,10.15
2023-04-25T19:47:18.665Z,9.45
2023-04-25T19:49:50.987Z,7.45
2023-04-25T19:52:20.912Z,9.30
2023-04-25T19:54:50.768Z,9.83
2023-04-25T19:57:20.469Z,9.05
2023-04-25T19:59:50.120Z,7.65
2023-04-25T20:02:21.516Z,7.35
2023-04-25T20:04:54.056Z,9.88
2023-04-25T20:07:24.640Z,9.75
2023-04-25T20:09:54.264Z,5.82
2023-04-25T20:12:23.917Z,7.72
2023-04-25T20:14:53.695Z,8.45
2023-04-25T20:17:23.527Z,6.47
2023-04-25T20:19:56.589Z,7.50
2023-04-25T20:22:28.633Z,7.05
2023-04-25T20:24:58.478Z,6.85
2023-04-25T20:27:28.272Z,7.97
2023-04-25T20:29:57.984Z,9.50
2023-04-25T20:32:27.927Z,9.00
2023-04-25T20:35:00.420Z,10.48
2023-04-25T20:37:31.603Z,6.80
2023-04-25T20:40:02.006Z,6.70
2023-04-25T20:42:32.160Z,8.93
2023-04-25T20:45:01.809Z,8.02
2023-04-25T20:47:31.588Z,8.25
2023-04-25T20:50:04.173Z,9.30
2023-04-25T20:52:34.267Z,10.20
2023-04-25T20:55:04.098Z,11.25
2023-04-25T20:57:33.976Z,73.40
2023-04-25T21:00:05.491Z,34.33
2023-04-25T21:02:35.482Z,43.83
2023-04-25T21:05:08.570Z,56.25
2023-04-25T21:07:38.360Z,55.78
2023-04-25T21:10:08.674Z,38.33
2023-04-25T21:12:38.445Z,23.70
2023-04-25T21:15:09.117Z,17.55
2023-04-25T21:17:38.947Z,34.78
2023-04-25T21:20:13.747Z,33.70
2023-04-25T21:22:51.022Z,22.17
2023-04-25T21:25:24.610Z,26.93
2023-04-25T21:27:55.613Z,29.75
2023-04-25T21:30:26.568Z,22.02
2023-04-25T21:32:56.925Z,15.73
2023-04-25T21:35:29.378Z,11.82
2023-04-25T21:37:59.260Z,11.15
2023-04-25T21:40:29.293Z,9.15
2023-04-25T21:42:59.043Z,10.80
2023-04-25T21:45:29.308Z,14.30
2023-04-25T21:47:59.122Z,7.60
2023-04-25T21:50:31.663Z,8.55
2023-04-25T21:53:01.413Z,10.80
2023-04-25T21:55:31.736Z,8.52
2023-04-25T21:58:01.623Z,10.40
2023-04-25T22:00:32.288Z,7.65
2023-04-25T22:03:02.519Z,12.98
2023-04-25T22:05:35.138Z,11.52
2023-04-25T22:08:04.791Z,9.47
2023-04-25T22:10:34.803Z,14.23
2023-04-25T22:13:05.710Z,10.82
2023-04-25T22:15:35.738Z,10.65
2023-04-25T22:18:05.785Z,6.28
2023-04-25T22:20:38.946Z,14.13
2023-04-25T22:23:08.918Z,12.93
2023-04-25T22:25:38.666Z,10.15
2023-04-25T22:28:08.507Z,9.23
2023-04-25T22:30:38.295Z,16.25
2023-04-25T22:33:08.052Z,6.05
2023-04-25T22:35:40.444Z,8.80
2023-04-25T22:38:10.657Z,10.75
2023-04-25T22:40:40.480Z,8.27
2023-04-25T22:43:10.693Z,13.05
2023-04-25T22:45:42.271Z,10.13
2023-04-25T22:48:12.073Z,9.55
2023-04-25T22:50:45.627Z,8.93
2023-04-25T22:53:15.273Z,11.85
2023-04-25T22:55:44.936Z,10.35
2023-04-25T22:58:14.821Z,10.60
2023-04-25T23:00:44.543Z,11.45
2023-04-25T23:03:14.312Z,13.30
2023-04-25T23:05:46.720Z,12.15
2023-04-25T23:08:17.574Z,10.18
2023-04-25T23:10:47.928Z,9.38
2023-04-25T23:13:18.371Z,9.38
2023-04-25T23:15:48.046Z,9.32
2023-04-25T23:18:17.877Z,11.20
2023-04-25T23:20:50.236Z,12.38
2023-04-25T23:23:19.958Z,8.32
2023-04-25T23:25:49.661Z,13.30
2023-04-25T23:28:19.497Z,10.02
2023-04-25T23:30:49.288Z,11.83
2023-04-25T23:33:18.966Z,15.63
2023-04-25T23:35:51.241Z,9.05
2023-04-25T23:38:21.012Z,8.48
2023-04-25T23:40:50.731Z,8.80
2023-04-25T23:43:20.487Z,7.00
2023-04-25T23:45:50.224Z,9.23
2023-04-25T23:48:19.884Z,11.27
2023-04-25T23:50:52.151Z,11.48
2023-04-25T23:53:22.006Z,14.95
2023-04-25T23:55:51.779Z,11.63
2023-04-25T23:58:21.475Z,10.40
